sensor_id;sensor_type;location;lat;lon;timestamp;P1;durP1;ratioP1;P2;durP2;ratioP2
64710;SDS011;51139;45.626;6.850;2023-05-19T00:01:54;9.50;;;3.88;;
64710;SDS011;51139;45.626;6.850;2023-05-19T00:04:20;3.38;;;2.03;;
64710;SDS011;51139;45.626;6.850;2023-05-19T00:06:48;2.58;;;1.75;;
64710;SDS011;51139;45.626;6.850;2023-05-19T00:09:15;17.65;;;6.97;;
64710;SDS011;51139;45.626;6.850;2023-05-19T00:11:41;3.55;;;1.70;;
64710;SDS011;51139;45.626;6.850;2023-05-19T00:14:07;2.08;;;1.42;;
64710;SDS011;51139;45.626;6.850;2023-05-19T00:16:33;28.90;;;11.63;;
64710;SDS011;51139;45.626;6.850;2023-05-19T00:19:02;4.60;;;2.08;;
64710;SDS011;51139;45.626;6.850;2023-05-19T00:21:28;2.28;;;1.20;;
64710;SDS011;51139;45.626;6.850;2023-05-19T00:23:55;2.90;;;1.80;;
64710;SDS011;51139;45.626;6.850;2023-05-19T00:26:21;2.22;;;1.42;;
64710;SDS011;51139;45.626;6.850;2023-05-19T00:28:51;2.67;;;1.58;;
64710;SDS011;51139;45.626;6.850;2023-05-19T00:31:17;2.33;;;1.50;;
64710;SDS011;51139;45.626;6.850;2023-05-19T00:33:42;5.35;;;2.40;;
64710;SDS011;51139;45.626;6.850;2023-05-19T00:36:08;1.98;;;1.20;;
64710;SDS011;51139;45.626;6.850;2023-05-19T00:38:34;1.92;;;0.90;;
64710;SDS011;51139;45.626;6.850;2023-05-19T00:41:00;1.40;;;1.00;;
64710;SDS011;51139;45.626;6.850;2023-05-19T00:43:27;1.95;;;0.93;;
64710;SDS011;51139;45.626;6.850;2023-05-19T00:45:54;1.38;;;1.00;;
64710;SDS011;51139;45.626;6.850;2023-05-19T00:48:19;1.45;;;0.80;;
64710;SDS011;51139;45.626;6.850;2023-05-19T00:50:45;1.33;;;0.77;;
64710;SDS011;51139;45.626;6.850;2023-05-19T00:53:12;1.23;;;1.05;;
64710;SDS011;51139;45.626;6.850;2023-05-19T00:55:38;5.88;;;2.88;;
64710;SDS011;51139;45.626;6.850;2023-05-19T00:58:05;5.25;;;2.25;;
64710;SDS011;51139;45.626;6.850;2023-05-19T01:00:33;11.25;;;4.85;;
64710;SDS011;51139;45.626;6.850;2023-05-19T01:02:58;1.58;;;1.05;;
64710;SDS011;51139;45.626;6.850;2023-05-19T01:05:24;1.73;;;1.15;;
64710;SDS011;51139;45.626;6.850;2023-05-19T01:07:50;2.55;;;1.30;;
64710;SDS011;51139;45.626;6.850;2023-05-19T01:10:18;2.95;;;1.40;;
64710;SDS011;51139;45.626;6.850;2023-05-19T01:12:44;7.20;;;3.10;;
64710;SDS011;51139;45.626;6.850;2023-05-19T01:15:09;2.25;;;1.10;;
64710;SDS011;51139;45.626;6.850;2023-05-19T01:17:42;8.82;;;3.75;;
64710;SDS011;51139;45.626;6.850;2023-05-19T01:20:21;3.63;;;1.90;;
64710;SDS011;51139;45.626;6.850;2023-05-19T01:30:59;4.65;;;2.33;;
64710;SDS011;51139;45.626;6.850;2023-05-19T01:33:25;4.32;;;2.20;;
64710;SDS011;51139;45.626;6.850;2023-05-19T01:35:54;5.75;;;2.90;;
64710;SDS011;51139;45.626;6.850;2023-05-19T01:38:20;2.28;;;1.63;;
64710;SDS011;51139;45.626;6.850;2023-05-19T01:40:46;2.17;;;1.17;;
64710;SDS011;51139;45.626;6.850;2023-05-19T01:43:19;1.33;;;1.00;;
64710;SDS011;51139;45.626;6.850;2023-05-19T01:45:46;3.17;;;2.00;;
64710;SDS011;51139;45.626;6.850;2023-05-19T01:48:12;2.58;;;1.10;;
64710;SDS011;51139;45.626;6.850;2023-05-19T01:50:39;5.43;;;2.33;;
64710;SDS011;51139;45.626;6.850;2023-05-19T01:53:05;1.95;;;1.20;;
64710;SDS011;51139;45.626;6.850;2023-05-19T01:55:30;1.60;;;1.10;;
64710;SDS011;51139;45.626;6.850;2023-05-19T01:58:10;1.52;;;1.00;;
64710;SDS011;51139;45.626;6.850;2023-05-19T02:00:51;2.88;;;1.70;;
64710;SDS011;51139;45.626;6.850;2023-05-19T02:12:13;1.63;;;1.10;;
64710;SDS011;51139;45.626;6.850;2023-05-19T02:14:49;2.58;;;1.30;;
64710;SDS011;51139;45.626;6.850;2023-05-19T02:17:22;1.48;;;1.10;;
64710;SDS011;51139;45.626;6.850;2023-05-19T02:19:51;3.15;;;1.60;;
64710;SDS011;51139;45.626;6.850;2023-05-19T02:22:16;1.67;;;1.38;;
64710;SDS011;51139;45.626;6.850;2023-05-19T02:24:42;2.20;;;1.48;;
64710;SDS011;51139;45.626;6.850;2023-05-19T02:27:08;2.42;;;1.70;;
64710;SDS011;51139;45.626;6.850;2023-05-19T02:29:34;1.95;;;1.40;;
64710;SDS011;51139;45.626;6.850;2023-05-19T02:32:00;3.58;;;2.10;;
64710;SDS011;51139;45.626;6.850;2023-05-19T02:34:26;3.00;;;2.05;;
64710;SDS011;51139;45.626;6.850;2023-05-19T02:36:51;2.80;;;2.00;;
64710;SDS011;51139;45.626;6.850;2023-05-19T02:39:16;2.63;;;1.88;;
64710;SDS011;51139;45.626;6.850;2023-05-19T02:41:42;3.20;;;1.60;;
64710;SDS011;51139;45.626;6.850;2023-05-19T02:44:07;2.00;;;1.60;;
64710;SDS011;51139;45.626;6.850;2023-05-19T02:46:33;2.40;;;1.70;;
64710;SDS011;51139;45.626;6.850;2023-05-19T02:48:58;1.98;;;1.35;;
64710;SDS011;51139;45.626;6.850;2023-05-19T02:51:23;2.33;;;1.63;;
64710;SDS011;51139;45.626;6.850;2023-05-19T02:53:49;2.30;;;1.65;;
64710;SDS011;51139;45.626;6.850;2023-05-19T02:56:15;1.95;;;1.30;;
64710;SDS011;51139;45.626;6.850;2023-05-19T02:58:40;2.35;;;1.75;;
64710;SDS011;51139;45.626;6.850;2023-05-19T03:01:07;1.90;;;1.50;;
64710;SDS011;51139;45.626;6.850;2023-05-19T03:03:33;2.80;;;1.50;;
64710;SDS011;51139;45.626;6.850;2023-05-19T03:05:58;2.42;;;1.75;;
64710;SDS011;51139;45.626;6.850;2023-05-19T03:08:24;2.75;;;1.40;;
64710;SDS011;51139;45.626;6.850;2023-05-19T03:10:49;2.53;;;1.50;;
64710;SDS011;51139;45.626;6.850;2023-05-19T03:13:14;3.10;;;1.95;;
64710;SDS011;51139;45.626;6.850;2023-05-19T03:15:41;2.28;;;1.55;;
64710;SDS011;51139;45.626;6.850;2023-05-19T03:18:07;1.63;;;1.25;;
64710;SDS011;51139;45.626;6.850;2023-05-19T03:20:32;1.63;;;1.25;;
64710;SDS011;51139;45.626;6.850;2023-05-19T03:22:57;1.63;;;1.30;;
64710;SDS011;51139;45.626;6.850;2023-05-19T03:25:24;4.07;;;1.92;;
64710;SDS011;51139;45.626;6.850;2023-05-19T03:27:49;37.90;;;3.38;;
64710;SDS011;51139;45.626;6.850;2023-05-19T03:30:15;7.30;;;3.40;;
64710;SDS011;51139;45.626;6.850;2023-05-19T03:32:40;3.00;;;2.03;;
64710;SDS011;51139;45.626;6.850;2023-05-19T03:35:06;2.70;;;1.80;;
64710;SDS011;51139;45.626;6.850;2023-05-19T03:37:31;1.45;;;1.20;;
64710;SDS011;51139;45.626;6.850;2023-05-19T03:40:00;2.40;;;1.60;;
64710;SDS011;51139;45.626;6.850;2023-05-19T03:42:25;1.92;;;1.40;;
64710;SDS011;51139;45.626;6.850;2023-05-19T03:44:51;3.13;;;1.88;;
64710;SDS011;51139;45.626;6.850;2023-05-19T03:47:16;189.38;;;10.63;;
64710;SDS011;51139;45.626;6.850;2023-05-19T03:49:41;171.45;;;10.05;;
64710;SDS011;51139;45.626;6.850;2023-05-19T03:52:07;592.63;;;32.15;;
64710;SDS011;51139;45.626;6.850;2023-05-19T03:54:33;381.48;;;18.45;;
64710;SDS011;51139;45.626;6.850;2023-05-19T03:56:59;265.35;;;12.30;;
64710;SDS011;51139;45.626;6.850;2023-05-19T03:59:25;245.85;;;14.75;;
64710;SDS011;51139;45.626;6.850;2023-05-19T04:01:50;220.27;;;12.95;;
64710;SDS011;51139;45.626;6.850;2023-05-19T04:04:16;407.38;;;18.80;;
64710;SDS011;51139;45.626;6.850;2023-05-19T04:06:41;375.77;;;16.67;;
64710;SDS011;51139;45.626;6.850;2023-05-19T04:09:11;350.75;;;18.63;;
64710;SDS011;51139;45.626;6.850;2023-05-19T04:11:37;359.92;;;20.42;;
64710;SDS011;51139;45.626;6.850;2023-05-19T04:14:03;402.58;;;19.92;;
64710;SDS011;51139;45.626;6.850;2023-05-19T04:16:29;531.25;;;28.98;;
64710;SDS011;51139;45.626;6.850;2023-05-19T04:18:54;415.73;;;19.60;;
64710;SDS011;51139;45.626;6.850;2023-05-19T04:21:20;439.15;;;22.85;;
64710;SDS011;51139;45.626;6.850;2023-05-19T04:23:46;224.55;;;11.65;;
64710;SDS011;51139;45.626;6.850;2023-05-19T04:26:12;535.13;;;27.05;;
64710;SDS011;51139;45.626;6.850;2023-05-19T04:28:38;618.75;;;31.50;;
64710;SDS011;51139;45.626;6.850;2023-05-19T04:31:06;565.13;;;30.85;;
64710;SDS011;51139;45.626;6.850;2023-05-19T04:33:35;463.98;;;25.92;;
64710;SDS011;51139;45.626;6.850;2023-05-19T04:36:01;384.88;;;18.65;;
64710;SDS011;51139;45.626;6.850;2023-05-19T04:38:29;613.83;;;32.30;;
64710;SDS011;51139;45.626;6.850;2023-05-19T04:40:55;697.28;;;37.30;;
64710;SDS011;51139;45.626;6.850;2023-05-19T04:43:20;265.23;;;12.50;;
64710;SDS011;51139;45.626;6.850;2023-05-19T04:45:46;682.25;;;34.72;;
64710;SDS011;51139;45.626;6.850;2023-05-19T04:48:14;644.00;;;33.03;;
64710;SDS011;51139;45.626;6.850;2023-05-19T04:50:39;643.03;;;32.85;;
64710;SDS011;51139;45.626;6.850;2023-05-19T06:32:00;13.55;;;4.00;;
64710;SDS011;51139;45.626;6.850;2023-05-19T06:34:25;84.55;;;9.00;;
64710;SDS011;51139;45.626;6.850;2023-05-19T06:36:50;7.13;;;3.65;;
64710;SDS011;51139;45.626;6.850;2023-05-19T06:39:16;1.00;;;0.70;;
64710;SDS011;51139;45.626;6.850;2023-05-19T06:41:41;1.23;;;0.95;;
64710;SDS011;51139;45.626;6.850;2023-05-19T06:44:07;343.02;;;18.30;;
64710;SDS011;51139;45.626;6.850;2023-05-19T06:46:35;278.67;;;16.35;;
64710;SDS011;51139;45.626;6.850;2023-05-19T06:49:00;168.45;;;11.57;;
64710;SDS011;51139;45.626;6.850;2023-05-19T06:51:26;3.30;;;1.92;;
64710;SDS011;51139;45.626;6.850;2023-05-19T06:53:51;452.63;;;26.45;;
64710;SDS011;51139;45.626;6.850;2023-05-19T06:56:17;15.02;;;4.22;;
64710;SDS011;51139;45.626;6.850;2023-05-19T06:58:43;3.95;;;2.40;;
64710;SDS011;51139;45.626;6.850;2023-05-19T07:01:09;3.90;;;1.15;;
64710;SDS011;51139;45.626;6.850;2023-05-19T07:03:34;5.82;;;2.97;;
64710;SDS011;51139;45.626;6.850;2023-05-19T07:06:00;1.17;;;0.70;;
64710;SDS011;51139;45.626;6.850;2023-05-19T07:08:25;0.77;;;0.50;;
64710;SDS011;51139;45.626;6.850;2023-05-19T07:10:51;5.85;;;3.05;;
64710;SDS011;51139;45.626;6.850;2023-05-19T07:13:17;20.38;;;4.57;;
64710;SDS011;51139;45.626;6.850;2023-05-19T07:15:42;13.70;;;4.47;;
64710;SDS011;51139;45.626;6.850;2023-05-19T07:18:08;18.40;;;4.97;;
64710;SDS011;51139;45.626;6.850;2023-05-19T07:20:33;12.88;;;4.50;;
64710;SDS011;51139;45.626;6.850;2023-05-19T07:22:59;276.75;;;16.15;;
64710;SDS011;51139;45.626;6.850;2023-05-19T07:25:26;286.17;;;15.45;;
64710;SDS011;51139;45.626;6.850;2023-05-19T07:27:54;5.28;;;3.17;;
64710;SDS011;51139;45.626;6.850;2023-05-19T07:30:20;10.75;;;3.80;;
64710;SDS011;51139;45.626;6.850;2023-05-19T07:32:45;4.10;;;2.80;;
64710;SDS011;51139;45.626;6.850;2023-05-19T07:35:10;4.43;;;2.65;;
64710;SDS011;51139;45.626;6.850;2023-05-19T07:37:36;6.57;;;3.15;;
64710;SDS011;51139;45.626;6.850;2023-05-19T07:40:02;3.58;;;2.17;;
64710;SDS011;51139;45.626;6.850;2023-05-19T07:42:28;3.53;;;2.47;;
64710;SDS011;51139;45.626;6.850;2023-05-19T07:44:53;9.40;;;3.13;;
64710;SDS011;51139;45.626;6.850;2023-05-19T07:47:19;3.65;;;2.50;;
64710;SDS011;51139;45.626;6.850;2023-05-19T07:49:44;1.23;;;0.77;;
64710;SDS011;51139;45.626;6.850;2023-05-19T07:52:10;49.03;;;5.38;;
64710;SDS011;51139;45.626;6.850;2023-05-19T07:54:35;256.05;;;14.57;;
64710;SDS011;51139;45.626;6.850;2023-05-19T07:57:01;2.42;;;1.80;;
64710;SDS011;51139;45.626;6.850;2023-05-19T07:59:26;78.30;;;7.53;;
64710;SDS011;51139;45.626;6.850;2023-05-19T08:01:51;0.70;;;0.70;;
64710;SDS011;51139;45.626;6.850;2023-05-19T08:04:17;4.68;;;2.90;;
64710;SDS011;51139;45.626;6.850;2023-05-19T08:06:42;15.88;;;4.63;;
64710;SDS011;51139;45.626;6.850;2023-05-19T08:09:08;5.18;;;3.42;;
64710;SDS011;51139;45.626;6.850;2023-05-19T08:11:34;3.33;;;2.25;;
64710;SDS011;51139;45.626;6.850;2023-05-19T08:14:00;4.90;;;3.70;;
64710;SDS011;51139;45.626;6.850;2023-05-19T08:16:26;2.90;;;1.95;;
64710;SDS011;51139;45.626;6.850;2023-05-19T08:18:51;2.10;;;1.40;;
64710;SDS011;51139;45.626;6.850;2023-05-19T08:21:17;3.10;;;1.90;;
64710;SDS011;51139;45.626;6.850;2023-05-19T08:23:42;3.53;;;2.20;;
64710;SDS011;51139;45.626;6.850;2023-05-19T08:26:07;1.02;;;0.90;;
64710;SDS011;51139;45.626;6.850;2023-05-19T08:28:33;1.30;;;0.90;;
64710;SDS011;51139;45.626;6.850;2023-05-19T08:30:58;0.50;;;0.40;;
64710;SDS011;51139;45.626;6.850;2023-05-19T08:33:24;0.30;;;0.30;;
64710;SDS011;51139;45.626;6.850;2023-05-19T08:35:49;0.32;;;0.32;;
64710;SDS011;51139;45.626;6.850;2023-05-19T08:38:15;0.30;;;0.30;;
64710;SDS011;51139;45.626;6.850;2023-05-19T08:40:40;0.20;;;0.20;;
64710;SDS011;51139;45.626;6.850;2023-05-19T08:43:07;0.20;;;0.20;;
64710;SDS011;51139;45.626;6.850;2023-05-19T08:45:32;0.10;;;0.10;;
64710;SDS011;51139;45.626;6.850;2023-05-19T08:48:02;0.10;;;0.10;;
64710;SDS011;51139;45.626;6.850;2023-05-19T08:50:28;0.55;;;0.55;;
64710;SDS011;51139;45.626;6.850;2023-05-19T08:58:19;0.40;;;0.32;;
64710;SDS011;51139;45.626;6.850;2023-05-19T09:00:46;0.60;;;0.47;;
64710;SDS011;51139;45.626;6.850;2023-05-19T09:03:12;0.55;;;0.40;;
64710;SDS011;51139;45.626;6.850;2023-05-19T09:05:39;0.77;;;0.50;;
64710;SDS011;51139;45.626;6.850;2023-05-19T09:08:07;0.45;;;0.38;;
64710;SDS011;51139;45.626;6.850;2023-05-19T09:10:32;0.80;;;0.50;;
64710;SDS011;51139;45.626;6.850;2023-05-19T09:12:58;0.90;;;0.60;;
64710;SDS011;51139;45.626;6.850;2023-05-19T09:15:24;0.32;;;0.20;;
64710;SDS011;51139;45.626;6.850;2023-05-19T09:17:56;0.60;;;0.30;;
64710;SDS011;51139;45.626;6.850;2023-05-19T09:20:30;0.38;;;0.20;;
64710;SDS011;51139;45.626;6.850;2023-05-19T09:22:55;0.10;;;0.10;;
64710;SDS011;51139;45.626;6.850;2023-05-19T09:25:23;0.15;;;0.15;;
64710;SDS011;51139;45.626;6.850;2023-05-19T09:27:50;0.10;;;0.10;;
64710;SDS011;51139;45.626;6.850;2023-05-19T09:30:18;0.60;;;0.40;;
64710;SDS011;51139;45.626;6.850;2023-05-19T09:32:44;0.70;;;0.20;;
64710;SDS011;51139;45.626;6.850;2023-05-19T09:35:10;0.20;;;0.20;;
64710;SDS011;51139;45.626;6.850;2023-05-19T09:37:40;3.50;;;1.63;;
64710;SDS011;51139;45.626;6.850;2023-05-19T09:40:08;2.17;;;1.52;;
64710;SDS011;51139;45.626;6.850;2023-05-19T09:42:38;0.98;;;0.70;;
64710;SDS011;51139;45.626;6.850;2023-05-19T09:45:04;0.52;;;0.50;;
64710;SDS011;51139;45.626;6.850;2023-05-19T09:47:34;1.73;;;0.93;;
64710;SDS011;51139;45.626;6.850;2023-05-19T09:50:03;0.70;;;0.70;;
64710;SDS011;51139;45.626;6.850;2023-05-19T09:52:29;0.88;;;0.70;;
64710;SDS011;51139;45.626;6.850;2023-05-19T09:54:55;0.82;;;0.60;;
64710;SDS011;51139;45.626;6.850;2023-05-19T09:57:24;0.68;;;0.60;;
64710;SDS011;51139;45.626;6.850;2023-05-19T09:59:52;0.93;;;0.60;;
64710;SDS011;51139;45.626;6.850;2023-05-19T10:02:20;0.93;;;0.80;;
64710;SDS011;51139;45.626;6.850;2023-05-19T10:04:50;1.45;;;0.85;;
64710;SDS011;51139;45.626;6.850;2023-05-19T10:07:17;1.05;;;0.70;;
64710;SDS011;51139;45.626;6.850;2023-05-19T10:09:43;0.75;;;0.70;;
64710;SDS011;51139;45.626;6.850;2023-05-19T10:12:09;0.28;;;0.20;;
64710;SDS011;51139;45.626;6.850;2023-05-19T10:14:36;1.00;;;0.10;;
64710;SDS011;51139;45.626;6.850;2023-05-19T10:17:02;0.10;;;0.10;;
64710;SDS011;51139;45.626;6.850;2023-05-19T10:19:28;1.13;;;0.10;;
64710;SDS011;51139;45.626;6.850;2023-05-19T10:21:53;1.35;;;0.10;;
64710;SDS011;51139;45.626;6.850;2023-05-19T10:24:19;0.10;;;0.10;;
64710;SDS011;51139;45.626;6.850;2023-05-19T10:26:50;0.20;;;0.10;;
64710;SDS011;51139;45.626;6.850;2023-05-19T10:29:21;0.40;;;0.10;;
64710;SDS011;51139;45.626;6.850;2023-05-19T10:31:51;1.25;;;0.85;;
64710;SDS011;51139;45.626;6.850;2023-05-19T10:34:22;0.10;;;0.10;;
64710;SDS011;51139;45.626;6.850;2023-05-19T10:40:23;0.08;;;0.08;;
64710;SDS011;51139;45.626;6.850;2023-05-19T10:42:56;0.10;;;0.10;;
64710;SDS011;51139;45.626;6.850;2023-05-19T10:45:32;0.10;;;0.10;;
64710;SDS011;51139;45.626;6.850;2023-05-19T10:48:04;0.75;;;0.00;;
64710;SDS011;51139;45.626;6.850;2023-05-19T10:50:35;0.00;;;0.00;;
64710;SDS011;51139;45.626;6.850;2023-05-19T10:53:01;0.43;;;0.20;;
64710;SDS011;51139;45.626;6.850;2023-05-19T11:01:17;0.10;;;0.10;;
64710;SDS011;51139;45.626;6.850;2023-05-19T11:03:52;0.10;;;0.10;;
64710;SDS011;51139;45.626;6.850;2023-05-19T11:08:55;0.50;;;0.50;;
64710;SDS011;51139;45.626;6.850;2023-05-19T11:11:22;0.10;;;0.10;;
64710;SDS011;51139;45.626;6.850;2023-05-19T11:13:54;0.10;;;0.10;;
64710;SDS011;51139;45.626;6.850;2023-05-19T11:16:32;0.10;;;0.10;;
64710;SDS011;51139;45.626;6.850;2023-05-19T11:18:58;0.45;;;0.10;;
64710;SDS011;51139;45.626;6.850;2023-05-19T11:21:39;0.20;;;0.10;;
64710;SDS011;51139;45.626;6.850;2023-05-19T11:24:07;0.10;;;0.10;;
64710;SDS011;51139;45.626;6.850;2023-05-19T11:26:39;0.00;;;0.00;;
64710;SDS011;51139;45.626;6.850;2023-05-19T11:29:09;0.10;;;0.10;;
64710;SDS011;51139;45.626;6.850;2023-05-19T11:31:34;0.10;;;0.10;;
64710;SDS011;51139;45.626;6.850;2023-05-19T11:34:00;0.10;;;0.10;;
64710;SDS011;51139;45.626;6.850;2023-05-19T11:36:26;0.10;;;0.10;;
64710;SDS011;51139;45.626;6.850;2023-05-19T11:38:52;0.10;;;0.10;;
64710;SDS011;51139;45.626;6.850;2023-05-19T11:41:18;2.83;;;0.10;;
64710;SDS011;51139;45.626;6.850;2023-05-19T11:43:46;0.10;;;0.10;;
64710;SDS011;51139;45.626;6.850;2023-05-19T11:46:11;0.08;;;0.08;;
64710;SDS011;51139;45.626;6.850;2023-05-19T11:48:37;0.10;;;0.10;;
64710;SDS011;51139;45.626;6.850;2023-05-19T11:51:04;0.10;;;0.10;;
64710;SDS011;51139;45.626;6.850;2023-05-19T11:53:30;0.00;;;0.00;;
64710;SDS011;51139;45.626;6.850;2023-05-19T11:56:01;0.00;;;0.00;;
64710;SDS011;51139;45.626;6.850;2023-05-19T11:58:27;0.10;;;0.10;;
64710;SDS011;51139;45.626;6.850;2023-05-19T12:00:53;0.00;;;0.00;;
64710;SDS011;51139;45.626;6.850;2023-05-19T12:03:20;0.20;;;0.08;;
64710;SDS011;51139;45.626;6.850;2023-05-19T12:05:46;0.00;;;0.00;;
64710;SDS011;51139;45.626;6.850;2023-05-19T12:08:12;0.25;;;0.10;;
64710;SDS011;51139;45.626;6.850;2023-05-19T12:10:38;0.00;;;0.00;;
64710;SDS011;51139;45.626;6.850;2023-05-19T12:13:05;0.25;;;0.00;;
64710;SDS011;51139;45.626;6.850;2023-05-19T12:15:32;0.10;;;0.10;;
64710;SDS011;51139;45.626;6.850;2023-05-19T12:17:59;0.10;;;0.10;;
64710;SDS011;51139;45.626;6.850;2023-05-19T12:20:26;0.13;;;0.00;;
64710;SDS011;51139;45.626;6.850;2023-05-19T12:22:56;0.10;;;0.00;;
64710;SDS011;51139;45.626;6.850;2023-05-19T12:25:23;0.00;;;0.00;;
64710;SDS011;51139;45.626;6.850;2023-05-19T12:27:49;0.10;;;0.10;;
64710;SDS011;51139;45.626;6.850;2023-05-19T12:30:17;0.00;;;0.00;;
64710;SDS011;51139;45.626;6.850;2023-05-19T12:32:44;0.00;;;0.00;;
64710;SDS011;51139;45.626;6.850;2023-05-19T12:35:10;0.00;;;0.00;;
64710;SDS011;51139;45.626;6.850;2023-05-19T12:37:39;0.10;;;0.10;;
64710;SDS011;51139;45.626;6.850;2023-05-19T12:40:05;0.08;;;0.08;;
64710;SDS011;51139;45.626;6.850;2023-05-19T12:42:31;0.10;;;0.10;;
64710;SDS011;51139;45.626;6.850;2023-05-19T12:44:59;1.42;;;0.20;;
64710;SDS011;51139;45.626;6.850;2023-05-19T12:47:33;0.13;;;0.00;;
64710;SDS011;51139;45.626;6.850;2023-05-19T12:50:00;0.10;;;0.10;;
64710;SDS011;51139;45.626;6.850;2023-05-19T12:52:47;0.15;;;0.00;;
64710;SDS011;51139;45.626;6.850;2023-05-19T12:55:16;0.10;;;0.10;;
64710;SDS011;51139;45.626;6.850;2023-05-19T12:57:48;0.00;;;0.00;;
64710;SDS011;51139;45.626;6.850;2023-05-19T13:00:23;0.00;;;0.00;;
64710;SDS011;51139;45.626;6.850;2023-05-19T13:05:21;0.10;;;0.10;;
64710;SDS011;51139;45.626;6.850;2023-05-19T13:07:56;0.10;;;0.10;;
64710;SDS011;51139;45.626;6.850;2023-05-19T13:10:23;0.30;;;0.10;;
64710;SDS011;51139;45.626;6.850;2023-05-19T13:12:51;0.63;;;0.10;;
64710;SDS011;51139;45.626;6.850;2023-05-19T13:15:18;0.47;;;0.10;;
64710;SDS011;51139;45.626;6.850;2023-05-19T13:17:43;0.03;;;0.03;;
64710;SDS011;51139;45.626;6.850;2023-05-19T13:20:10;2.40;;;1.30;;
64710;SDS011;51139;45.626;6.850;2023-05-19T13:22:36;0.00;;;0.00;;
64710;SDS011;51139;45.626;6.850;2023-05-19T13:25:02;0.38;;;0.10;;
64710;SDS011;51139;45.626;6.850;2023-05-19T13:27:27;0.00;;;0.00;;
64710;SDS011;51139;45.626;6.850;2023-05-19T13:29:52;0.25;;;0.08;;
64710;SDS011;51139;45.626;6.850;2023-05-19T13:32:18;0.03;;;0.03;;
64710;SDS011;51139;45.626;6.850;2023-05-19T13:34:43;0.00;;;0.00;;
64710;SDS011;51139;45.626;6.850;2023-05-19T13:37:09;0.10;;;0.00;;
64710;SDS011;51139;45.626;6.850;2023-05-19T13:39:35;0.15;;;0.10;;
64710;SDS011;51139;45.626;6.850;2023-05-19T13:42:01;0.00;;;0.00;;
64710;SDS011;51139;45.626;6.850;2023-05-19T13:44:26;0.00;;;0.00;;
64710;SDS011;51139;45.626;6.850;2023-05-19T13:46:52;0.35;;;0.10;;
64710;SDS011;51139;45.626;6.850;2023-05-19T13:49:17;0.00;;;0.00;;
64710;SDS011;51139;45.626;6.850;2023-05-19T13:51:43;0.00;;;0.00;;
64710;SDS011;51139;45.626;6.850;2023-05-19T13:54:08;0.03;;;0.03;;
64710;SDS011;51139;45.626;6.850;2023-05-19T13:56:34;0.10;;;0.10;;
64710;SDS011;51139;45.626;6.850;2023-05-19T13:59:00;0.25;;;0.10;;
64710;SDS011;51139;45.626;6.850;2023-05-19T14:01:25;0.63;;;0.10;;
64710;SDS011;51139;45.626;6.850;2023-05-19T14:03:51;0.10;;;0.10;;
64710;SDS011;51139;45.626;6.850;2023-05-19T14:06:16;0.05;;;0.03;;
64710;SDS011;51139;45.626;6.850;2023-05-19T14:08:41;0.00;;;0.00;;
64710;SDS011;51139;45.626;6.850;2023-05-19T14:11:07;0.45;;;0.10;;
64710;SDS011;51139;45.626;6.850;2023-05-19T14:13:32;0.25;;;0.10;;
64710;SDS011;51139;45.626;6.850;2023-05-19T14:15:58;0.55;;;0.10;;
64710;SDS011;51139;45.626;6.850;2023-05-19T14:18:23;1.27;;;0.17;;
64710;SDS011;51139;45.626;6.850;2023-05-19T14:20:49;0.10;;;0.10;;
64710;SDS011;51139;45.626;6.850;2023-05-19T14:23:14;0.13;;;0.10;;
64710;SDS011;51139;45.626;6.850;2023-05-19T14:25:41;0.52;;;0.08;;
64710;SDS011;51139;45.626;6.850;2023-05-19T14:28:06;0.85;;;0.10;;
64710;SDS011;51139;45.626;6.850;2023-05-19T14:30:32;0.10;;;0.10;;
64710;SDS011;51139;45.626;6.850;2023-05-19T14:32:57;0.10;;;0.10;;
64710;SDS011;51139;45.626;6.850;2023-05-19T14:35:23;0.63;;;0.20;;
64710;SDS011;51139;45.626;6.850;2023-05-19T14:37:49;0.10;;;0.10;;
64710;SDS011;51139;45.626;6.850;2023-05-19T14:40:15;0.75;;;0.10;;
64710;SDS011;51139;45.626;6.850;2023-05-19T14:42:40;0.15;;;0.10;;
64710;SDS011;51139;45.626;6.850;2023-05-19T14:45:06;0.00;;;0.00;;
64710;SDS011;51139;45.626;6.850;2023-05-19T14:47:32;1.00;;;0.20;;
64710;SDS011;51139;45.626;6.850;2023-05-19T14:49:57;0.65;;;0.22;;
64710;SDS011;51139;45.626;6.850;2023-05-19T14:52:22;0.35;;;0.10;;
64710;SDS011;51139;45.626;6.850;2023-05-19T14:54:48;0.13;;;0.10;;
64710;SDS011;51139;45.626;6.850;2023-05-19T14:57:13;0.52;;;0.10;;
64710;SDS011;51139;45.626;6.850;2023-05-19T14:59:38;0.15;;;0.10;;
64710;SDS011;51139;45.626;6.850;2023-05-19T15:02:04;0.10;;;0.10;;
64710;SDS011;51139;45.626;6.850;2023-05-19T15:04:30;0.00;;;0.00;;
64710;SDS011;51139;45.626;6.850;2023-05-19T15:06:55;0.30;;;0.10;;
64710;SDS011;51139;45.626;6.850;2023-05-19T15:09:21;0.10;;;0.10;;
64710;SDS011;51139;45.626;6.850;2023-05-19T15:11:47;0.00;;;0.00;;
64710;SDS011;51139;45.626;6.850;2023-05-19T15:14:12;0.10;;;0.10;;
64710;SDS011;51139;45.626;6.850;2023-05-19T15:16:37;0.10;;;0.10;;
64710;SDS011;51139;45.626;6.850;2023-05-19T15:19:03;0.10;;;0.10;;
64710;SDS011;51139;45.626;6.850;2023-05-19T15:21:28;0.35;;;0.10;;
64710;SDS011;51139;45.626;6.850;2023-05-19T15:23:54;1.00;;;0.10;;
64710;SDS011;51139;45.626;6.850;2023-05-19T15:26:19;0.32;;;0.10;;
64710;SDS011;51139;45.626;6.850;2023-05-19T15:28:45;2.47;;;0.55;;
64710;SDS011;51139;45.626;6.850;2023-05-19T15:31:10;0.10;;;0.10;;
64710;SDS011;51139;45.626;6.850;2023-05-19T15:33:35;0.10;;;0.10;;
64710;SDS011;51139;45.626;6.850;2023-05-19T15:36:01;1.27;;;0.10;;
64710;SDS011;51139;45.626;6.850;2023-05-19T15:38:26;0.00;;;0.00;;
64710;SDS011;51139;45.626;6.850;2023-05-19T15:40:52;0.00;;;0.00;;
64710;SDS011;51139;45.626;6.850;2023-05-19T15:43:17;0.00;;;0.00;;
64710;SDS011;51139;45.626;6.850;2023-05-19T15:45:43;1.17;;;0.10;;
64710;SDS011;51139;45.626;6.850;2023-05-19T15:48:09;0.00;;;0.00;;
64710;SDS011;51139;45.626;6.850;2023-05-19T15:50:35;0.20;;;0.10;;
64710;SDS011;51139;45.626;6.850;2023-05-19T15:53:00;0.20;;;0.20;;
64710;SDS011;51139;45.626;6.850;2023-05-19T15:55:26;0.20;;;0.20;;
64710;SDS011;51139;45.626;6.850;2023-05-19T15:57:51;0.17;;;0.03;;
64710;SDS011;51139;45.626;6.850;2023-05-19T16:00:16;0.03;;;0.00;;
64710;SDS011;51139;45.626;6.850;2023-05-19T16:02:42;0.32;;;0.10;;
64710;SDS011;51139;45.626;6.850;2023-05-19T16:05:07;0.47;;;0.03;;
64710;SDS011;51139;45.626;6.850;2023-05-19T16:07:33;0.00;;;0.00;;
64710;SDS011;51139;45.626;6.850;2023-05-19T16:09:58;0.32;;;0.10;;
64710;SDS011;51139;45.626;6.850;2023-05-19T16:12:24;0.10;;;0.10;;
64710;SDS011;51139;45.626;6.850;2023-05-19T16:14:49;0.65;;;0.30;;
64710;SDS011;51139;45.626;6.850;2023-05-19T16:17:15;0.20;;;0.10;;
64710;SDS011;51139;45.626;6.850;2023-05-19T16:19:41;0.05;;;0.05;;
64710;SDS011;51139;45.626;6.850;2023-05-19T16:22:07;0.15;;;0.00;;
64710;SDS011;51139;45.626;6.850;2023-05-19T16:24:32;0.05;;;0.05;;
64710;SDS011;51139;45.626;6.850;2023-05-19T16:26:57;0.00;;;0.00;;
64710;SDS011;51139;45.626;6.850;2023-05-19T16:29:23;0.00;;;0.00;;
64710;SDS011;51139;45.626;6.850;2023-05-19T16:31:48;0.10;;;0.10;;
64710;SDS011;51139;45.626;6.850;2023-05-19T16:34:14;0.35;;;0.05;;
64710;SDS011;51139;45.626;6.850;2023-05-19T16:36:39;0.00;;;0.00;;
64710;SDS011;51139;45.626;6.850;2023-05-19T16:39:04;0.10;;;0.10;;
64710;SDS011;51139;45.626;6.850;2023-05-19T16:41:30;0.00;;;0.00;;
64710;SDS011;51139;45.626;6.850;2023-05-19T16:43:55;0.10;;;0.10;;
64710;SDS011;51139;45.626;6.850;2023-05-19T16:46:21;0.00;;;0.00;;
64710;SDS011;51139;45.626;6.850;2023-05-19T16:48:46;0.00;;;0.00;;
64710;SDS011;51139;45.626;6.850;2023-05-19T16:51:11;0.10;;;0.10;;
64710;SDS011;51139;45.626;6.850;2023-05-19T16:53:37;0.00;;;0.00;;
64710;SDS011;51139;45.626;6.850;2023-05-19T16:56:03;0.00;;;0.00;;